Latest Weather Observations for Avalon

IDV60901

Issued at 9:41 pm EST Wednesday 4 May 2016 (issued every 10 minutes, with the page automatically refreshed every 10 minutes)

About weather observations | Map of Melbourne area stations | Latest observations for Melbourne area | Other Formats
Station Details ID: 087113 Name: AVALON AIRPORT Lat: -38.03 Lon: 144.48 Height: 10.6 m
Data from the previous 72 hours. | See also: Recent months at Avalon
Date/Time
EST
Tmp

°C
App
Tmp
°C
Dew
Point
°C
Rel
Hum
%
Delta-T

°C
Wind Press
QNH
hPa
Press
MSL
hPa
Rain
since
9 am
mm
Dir
 
Spd
km/h
Gust
km/h
Spd
kts
Gust
kts
04/09:30pm 14.4 10.1 7.9 65 3.2 N 20 24 11 13 1016.2 1016.2 0.0
04/09:00pm 14.6 10.5 7.9 64 3.3 N 19 24 10 13 1016.0 1016.0 0.0
04/08:30pm 14.7 10.4 7.7 63 3.5 N 20 28 11 15 1015.9 1015.9 0.0
04/08:00pm 14.5 10.1 7.5 63 3.4 N 20 26 11 14 1015.7 1015.7 0.0
04/07:30pm 14.5 10.6 7.1 61 3.6 N 17 20 9 11 1015.7 1015.7 0.0
04/07:00pm 14.8 10.5 7.1 60 3.8 N 19 24 10 13 1015.3 1015.3 0.0
04/06:30pm 15.1 10.7 7.2 59 3.9 N 20 26 11 14 1014.9 1014.9 0.0
04/06:00pm 15.3 10.8 6.8 57 4.2 N 20 28 11 15 1014.6 1014.6 0.0
04/05:30pm 15.6 11.2 6.6 55 4.4 NNW 19 24 10 13 1014.4 1014.4 0.0
04/05:00pm 16.1 11.1 6.3 52 4.8 NNW 22 28 12 15 1014.0 1014.0 0.0
04/04:30pm 16.4 11.0 6.5 52 4.8 NNW 24 30 13 16 1013.9 1013.9 0.0
04/04:00pm 16.7 10.4 5.6 48 5.3 NW 28 37 15 20 1013.7 1013.7 0.0
04/03:30pm 16.8 11.0 6.3 50 5.1 NW 26 32 14 17 1013.8 1013.8 0.0
04/03:00pm 16.8 10.2 6.0 49 5.2 NW 30 39 16 21 1013.8 1013.8 0.0
04/02:30pm 16.7 9.4 5.3 47 5.5 NW 33 44 18 24 1013.7 1013.7 0.0
04/02:00pm 16.8 10.4 5.1 46 5.6 NW 28 39 15 21 1013.8 1013.8 0.0
04/01:30pm 16.6 10.2 5.3 47 5.4 NW 28 39 15 21 1013.9 1013.9 0.0
04/01:00pm 17.5 11.2 5.8 46 5.7 NW 28 37 15 20 1013.9 1013.9 0.0
04/12:30pm 17.1 11.9 5.4 46 5.6 NW 22 39 12 21 1014.3 1014.3 0.0
04/12:00pm 16.8 10.8 5.1 46 5.6 NW 26 39 14 21 1014.7 1014.7 0.0
04/11:30am 16.6 10.7 5.6 48 5.3 NW 26 35 14 19 1014.9 1014.9 0.0
04/11:00am 15.7 10.2 5.9 52 4.7 NW 24 32 13 17 1015.1 1015.1 0.0
04/10:30am 15.4 10.2 5.6 52 4.7 NW 22 30 12 16 1015.2 1015.2 0.0
04/10:00am 14.7 9.6 5.8 55 4.2 NW 22 30 12 16 1015.2 1015.2 0.0
04/09:30am 13.7 8.2 5.8 59 3.7 NW 24 32 13 17 1015.0 1015.0 0.0
04/09:00am 12.8 8.4 6.6 66 3.0 NW 19 26 10 14 1015.0 1015.0 0.6
04/08:30am 11.3 5.8 6.0 70 2.5 NW 24 32 13 17 1014.7 1014.7 0.6
04/08:00am 10.1 6.0 6.1 76 1.9 NW 17 22 9 12 1014.2 1014.2 0.6
04/07:30am 8.5 4.7 5.8 83 1.2 NNW 15 17 8 9 1013.8 1013.8 0.6
04/07:00am 9.0 4.4 5.6 79 1.5 NW 19 22 10 12 1013.3 1013.3 0.6
04/06:30am 8.5 4.2 5.3 80 1.4 NW 17 20 9 11 1013.1 1013.1 0.6
04/06:00am 9.0 4.4 5.6 79 1.5 NW 19 22 10 12 1012.7 1012.7 0.6
04/05:30am 8.4 4.1 5.3 81 1.4 NNW 17 20 9 11 1012.2 1012.2 0.6
04/05:00am 9.6 4.8 5.6 76 1.8 NW 20 26 11 14 1011.9 1011.9 0.6
04/04:30am 9.5 4.9 5.7 77 1.7 NW 19 22 10 12 1011.2 1011.2 0.6
04/04:00am 9.8 5.0 5.8 76 1.8 NW 20 24 11 13 1011.1 1011.1 0.6
04/03:30am 9.0 4.8 5.7 80 1.5 NW 17 20 9 11 1010.8 1010.8 0.6
04/03:00am 9.6 5.0 5.6 76 1.8 NW 19 24 10 13 1010.4 1010.4 0.6
04/02:30am 9.9 5.7 5.5 74 2.0 NW 17 20 9 11 1009.9 1009.9 0.6
04/02:00am 10.3 6.1 5.7 73 2.1 NW 17 20 9 11 1009.8 1009.8 0.6
04/01:30am 10.6 6.1 6.0 73 2.1 NW 19 22 10 12 1009.8 1009.8 0.6
04/01:00am 11.1 6.5 6.3 72 2.3 WNW 20 26 11 14 1009.7 1009.7 0.6
04/12:30am 11.7 4.7 6.2 69 2.6 WNW 32 44 17 24 1009.5 1009.5 0.6
04/12:00am 11.4 6.3 6.1 70 2.5 WNW 22 30 12 16 1009.3 1009.3 0.6
 
Date/Time
EST
Tmp

°C
App
Tmp
°C
Dew
Point
°C
Rel
Hum
%
Delta-T

°C
Wind Press
QNH
hPa
Press
MSL
hPa
Rain
since
9 am
mm
Dir
 
Spd
km/h
Gust
km/h
Spd
kts
Gust
kts
03/11:30pm 12.1 7.9 5.9 66 2.9 NW 17 20 9 11 1009.0 1009.0 0.6
03/11:00pm 11.7 7.5 5.8 67 2.8 WNW 17 20 9 11 1008.6 1008.6 0.6
03/10:30pm 12.2 8.4 6.0 66 2.9 NW 15 22 8 12 1008.3 1008.3 0.6
03/10:00pm 11.9 8.1 5.8 66 2.9 NW 15 20 8 11 1007.9 1007.9 0.6
03/09:30pm 12.1 7.9 5.5 64 3.1 NW 17 24 9 13 1007.7 1007.7 0.6
03/09:00pm 12.3 7.6 5.9 65 3.0 WNW 20 26 11 14 1007.0 1007.0 0.6
03/08:30pm 11.1 8.4 7.2 77 1.9 NNW 11 15 6 8 1006.6 1006.6 0.6
03/08:00pm 12.5 8.5 6.8 68 2.7 NW 17 24 9 13 1006.1 1006.1 0.6
03/07:30pm 13.3 8.3 6.6 64 3.2 WNW 22 28 12 15 1005.9 1005.9 0.6
03/07:00pm 13.1 9.4 7.8 70 2.6 NW 17 26 9 14 1005.7 1005.7 0.6
03/06:30pm 13.1 8.0 7.5 69 2.7 NW 24 32 13 17 1004.7 1004.7 0.6
03/06:00pm 13.4 6.5 7.4 67 2.9 WNW 33 46 18 25 1003.9 1003.9 0.6
03/05:30pm 13.9 9.0 9.9 77 2.1 NW 26 39 14 21 1002.9 1002.9 0.6
03/05:01pm 14.2 7.1 9.6 74 2.4 WNW 37 56 20 30 1002.5 1002.5 0.6
03/05:00pm 14.2 7.5 9.6 74 2.4 WNW 35 46 19 25 1002.5 1002.5 0.6
03/04:39pm 14.2 5.0 9.6 74 2.4 WNW 48 67 26 36 1001.5 1001.5 0.6
03/04:30pm 14.8 5.1 9.2 69 2.9 WNW 50 67 27 36 1001.3 1001.3 0.6
03/04:14pm 14.9 5.7 9.5 70 2.8 WNW 48 72 26 39 1000.7 1000.7 0.6
03/04:00pm 14.8 5.4 10.0 73 2.5 WNW 50 67 27 36 1000.7 1000.7 0.6
03/03:36pm 14.6 4.6 10.6 77 2.1 WNW 54 76 29 41 1000.5 1000.5 0.6
03/03:30pm 14.4 5.6 10.8 79 1.9 W 48 63 26 34 1000.4 1000.4 0.6
03/03:12pm 13.8 4.7 11.3 85 1.3 W 50 76 27 41 1000.0 1000.0 0.4
03/03:05pm 14.5 3.7 11.3 81 1.7 W 59 78 32 42 999.8 999.8 0.4
03/03:00pm 15.3 5.6 11.7 79 2.0 WNW 54 80 29 43 999.3 999.3 0.4
03/02:59pm 15.6 6.7 12.0 79 2.0 WNW 50 80 27 43 999.3 999.3 0.4
03/02:45pm 17.9 9.6 11.5 66 3.5 WNW 46 69 25 37 998.6 998.6 0.0
03/02:41pm 19.4 10.0 11.4 60 4.4 NW 52 72 28 39 998.3 998.3 0.0
03/02:32pm 21.1 11.0 10.3 50 5.9 NW 54 72 29 39 997.7 997.7 0.0
03/02:30pm 21.0 10.9 10.5 51 5.7 NW 54 67 29 36 997.7 997.7 0.0
03/02:00pm 19.8 10.2 10.8 56 4.9 NNW 52 74 28 40 997.8 997.8 0.0
03/01:30pm 20.1 10.5 10.8 55 5.1 NNW 52 74 28 40 997.6 997.6 0.0
03/01:20pm 19.7 11.1 10.4 55 5.0 NNW 46 67 25 36 997.7 997.7 0.0
03/01:18pm 19.7 10.8 10.7 56 4.9 NNW 48 69 26 37 997.9 997.9 0.0
03/01:00pm 19.4 8.3 10.1 55 5.0 NNW 59 80 32 43 997.5 997.5 0.0
03/12:30pm 19.8 9.6 10.2 54 5.2 NNW 54 72 29 39 997.7 997.7 0.0
03/12:13pm 19.4 10.7 9.9 54 5.1 NNW 46 65 25 35 998.1 998.1 0.0
03/12:00pm 19.6 10.2 10.0 54 5.2 NNW 50 67 27 36 998.3 998.3 0.0
03/11:35am 18.9 8.6 9.7 55 4.9 NNW 54 72 29 39 998.8 998.8 0.0
03/11:30am 19.1 8.8 9.6 54 5.0 NNW 54 69 29 37 998.7 998.7 0.0
03/11:00am 18.3 8.2 9.1 55 4.8 NNW 52 78 28 42 999.2 999.2 0.0
03/10:30am 18.5 7.2 9.3 55 4.8 NNW 59 82 32 44 998.9 998.9 0.0
03/10:00am 18.4 6.7 9.2 55 4.8 NNW 61 85 33 46 999.1 999.1 0.0
03/09:30am 18.2 7.8 9.3 56 4.7 NNW 54 80 29 43 999.3 999.3 0.0
03/09:01am 17.5 7.3 8.6 56 4.6 NNW 52 72 28 39 999.8 999.8 0.0
03/09:00am 17.6 7.4 8.7 56 4.6 NNW 52 69 28 37 999.9 999.9 0.0
03/08:30am 17.0 7.6 8.9 59 4.2 NNW 48 67 26 36 1000.3 1000.3 0.0
03/08:07am 16.6 6.5 8.8 60 4.0 NNW 52 72 28 39 1000.2 1000.2 0.0
03/08:00am 16.4 6.7 8.9 61 3.9 NNW 50 65 27 35 1000.2 1000.2 0.0
03/07:36am 16.2 6.0 8.7 61 3.8 NNW 52 76 28 41 1000.1 1000.1 0.0
03/07:30am 16.1 5.6 8.8 62 3.7 NNW 54 67 29 36 1000.1 1000.1 0.0
03/07:14am 16.2 6.8 8.7 61 3.8 N 48 76 26 41 1000.3 1000.3 0.0
03/07:00am 16.2 7.2 8.7 61 3.9 NNW 46 63 25 34 1000.8 1000.8 0.0
03/06:46am 16.0 7.3 8.5 61 3.8 NNW 44 63 24 34 1000.8 1000.8 0.0
03/06:30am 16.1 7.0 8.6 61 3.8 NNW 46 63 25 34 1000.7 1000.7 0.0
03/06:20am 16.0 6.9 8.5 61 3.8 NNW 46 65 25 35 1000.9 1000.9 0.0
03/06:00am 15.9 6.4 8.4 61 3.8 NNW 48 61 26 33 1001.0 1001.0 0.0
03/05:37am 16.2 7.6 8.2 59 4.0 NNW 43 65 23 35 1001.2 1001.2 0.0
03/05:30am 16.3 8.1 8.3 59 4.1 NNW 41 54 22 29 1001.4 1001.4 0.0
03/05:04am 16.0 9.3 8.0 59 4.0 NNW 33 56 18 30 1001.6 1001.6 0.0
03/05:00am 15.8 9.1 8.3 61 3.8 NNW 33 44 18 24 1001.7 1001.7 0.0
03/04:30am 15.9 8.9 8.4 61 3.8 NNW 35 54 19 29 1001.9 1001.9 0.0
03/04:25am 16.1 9.1 8.3 60 4.0 NW 35 54 19 29 1001.8 1001.8 0.0
03/04:00am 15.9 7.7 8.2 60 3.9 NNW 41 54 22 29 1001.9 1001.9 0.0
03/03:30am 15.7 8.4 8.7 63 3.6 NNW 37 48 20 26 1002.6 1002.6 0.0
03/03:00am 15.5 8.2 8.7 64 3.5 NNW 37 52 20 28 1003.3 1003.3 0.0
03/02:30am 15.6 9.0 8.4 62 3.6 NNW 33 46 18 25 1003.8 1003.8 0.0
03/02:02am 16.2 9.1 8.2 59 4.0 NNW 35 54 19 29 1003.8 1003.8 0.0
03/02:00am 15.9 9.2 8.2 60 3.9 NNW 33 48 18 26 1004.0 1004.0 0.0
03/01:30am 16.1 9.7 7.1 55 4.5 N 30 37 16 20 1004.3 1004.3 0.0
03/01:00am 16.0 9.1 6.4 53 4.7 N 32 44 17 24 1004.7 1004.7 0.0
03/12:30am 16.1 8.5 6.0 51 4.9 N 35 50 19 27 1004.7 1004.7 0.0
03/12:00am 16.0 8.8 5.9 51 4.9 N 33 43 18 23 1005.4 1005.4 0.0
 
Date/Time
EST
Tmp

°C
App
Tmp
°C
Dew
Point
°C
Rel
Hum
%
Delta-T

°C
Wind Press
QNH
hPa
Press
MSL
hPa
Rain
since
9 am
mm
Dir
 
Spd
km/h
Gust
km/h
Spd
kts
Gust
kts
02/11:30pm 15.8 9.2 6.0 52 4.7 N 30 39 16 21 1005.8 1005.8 0.0
02/11:00pm 15.8 8.2 5.7 51 4.9 N 35 46 19 25 1005.9 1005.9 0.0
02/10:30pm 16.0 7.6 5.6 50 5.0 N 39 54 21 29 1006.1 1006.1 0.0
02/10:04pm 16.1 9.0 5.4 49 5.1 N 32 50 17 27 1006.5 1006.5 0.0
02/10:00pm 15.4 8.3 5.3 51 4.8 N 32 44 17 24 1006.7 1006.7 0.0
02/09:30pm 15.5 8.4 5.4 51 4.8 N 32 44 17 24 1006.7 1006.7 0.0
02/09:00pm 16.1 8.3 5.1 48 5.2 NNW 35 50 19 27 1006.9 1006.9 0.0
02/08:30pm 15.9 8.6 5.5 50 5.0 NNW 33 43 18 23 1007.1 1007.1 0.0
02/08:00pm 15.9 8.8 5.5 50 5.0 NNW 32 46 17 25 1007.3 1007.3 0.0
02/07:30pm 14.0 9.3 5.9 58 3.8 NNE 20 28 11 15 1007.4 1007.4 0.0
02/07:00pm 14.0 9.5 5.9 58 3.9 NNE 19 24 10 13 1007.8 1007.8 0.0
02/06:30pm 14.2 9.5 6.1 58 3.9 N 20 28 11 15 1007.7 1007.7 0.0
02/06:00pm 14.8 9.3 6.1 56 4.2 N 24 33 13 18 1007.6 1007.6 0.0
02/05:30pm 16.0 8.4 5.6 50 5.0 N 35 46 19 25 1007.3 1007.3 0.0
02/05:00pm 16.6 9.0 5.6 48 5.3 N 35 44 19 24 1007.7 1007.7 0.0
02/04:30pm 17.5 9.5 5.8 46 5.7 NNW 37 46 20 25 1007.9 1007.9 0.0
02/04:00pm 18.3 10.3 5.8 44 6.1 NNW 37 50 20 27 1008.0 1008.0 0.0
02/03:30pm 18.3 9.9 5.5 43 6.2 NNW 39 52 21 28 1008.1 1008.1 0.0
02/03:00pm 17.9 9.5 5.5 44 6.0 NNW 39 56 21 30 1008.5 1008.5 0.0
02/02:37pm 18.6 10.7 6.4 45 6.1 NNW 37 56 20 30 1008.4 1008.4 0.0
02/02:30pm 18.8 10.5 6.3 44 6.2 NW 39 56 21 30 1008.3 1008.3 0.0
02/02:00pm 18.6 10.3 6.1 44 6.2 NNW 39 52 21 28 1008.5 1008.5 0.0
02/01:30pm 17.8 9.5 6.0 46 5.8 NNW 39 54 21 29 1008.9 1008.9 0.0
02/01:00pm 17.9 9.2 6.1 46 5.8 NW 41 56 22 30 1009.3 1009.3 0.0
02/12:30pm 17.8 9.5 6.0 46 5.8 NNW 39 48 21 26 1009.6 1009.6 0.0
02/12:00pm 17.0 8.6 5.6 47 5.5 NNW 39 54 21 29 1010.2 1010.2 0.0
02/11:30am 16.8 8.8 5.7 48 5.4 NNW 37 56 20 30 1010.5 1010.5 0.0
02/11:20am 16.4 8.3 5.4 48 5.3 NNW 37 56 20 30 1010.9 1010.9 0.0
02/11:00am 16.2 9.0 6.1 51 4.9 NNW 33 44 18 24 1011.3 1011.3 0.0
02/10:30am 15.7 8.2 6.2 53 4.6 NNW 35 48 19 26 1011.6 1011.6 0.0
02/10:22am 15.4 8.3 6.4 55 4.4 NNW 33 48 18 26 1011.6 1011.6 0.0
02/10:00am 14.2 8.9 6.8 61 3.6 N 24 30 13 16 1012.2 1012.2 0.0
02/09:30am 12.9 7.5 6.5 65 3.1 N 24 32 13 17 1012.5 1012.5 0.0
02/09:00am 12.7 6.9 6.1 64 3.1 NNW 26 32 14 17 1012.5 1012.5 0.8
02/08:30am 12.0 6.0 5.4 64 3.1 NNW 26 33 14 18 1012.9 1012.9 0.8
02/08:00am 11.7 5.3 5.1 64 3.0 NNW 28 39 15 21 1012.8 1012.8 0.8
02/07:30am 10.6 5.3 4.9 68 2.6 NNW 22 28 12 15 1012.7 1012.7 0.8
02/07:00am 10.2 5.2 4.6 68 2.5 NNW 20 28 11 15 1012.7 1012.7 0.8
02/06:30am 9.3 4.3 4.5 72 2.1 NNW 20 22 11 12 1012.7 1012.7 0.8
02/06:00am 8.6 3.2 4.4 75 1.8 NNW 22 26 12 14 1012.8 1012.8 0.8
02/05:30am 8.1 3.0 4.3 77 1.7 N 20 24 11 13 1013.0 1013.0 0.8
02/05:00am 9.5 3.8 4.9 73 2.1 NNW 24 30 13 16 1012.9 1012.9 0.8
02/04:30am 9.0 4.0 4.8 75 1.9 NNW 20 26 11 14 1012.7 1012.7 0.8
02/04:00am 8.9 3.9 4.7 75 1.9 NNW 20 26 11 14 1012.8 1012.8 0.8
02/03:30am 9.4 2.9 4.8 73 2.1 NNW 28 37 15 20 1013.0 1013.0 0.8
02/03:00am 9.5 3.8 4.9 73 2.1 NNW 24 30 13 16 1013.2 1013.2 0.8
02/02:30am 9.5 3.8 4.9 73 2.1 NNW 24 33 13 18 1013.5 1013.5 0.8
02/02:00am 9.7 4.0 4.9 72 2.2 NNW 24 30 13 16 1013.9 1013.9 0.8
02/01:30am 8.9 3.6 4.9 76 1.8 NNW 22 26 12 14 1014.1 1014.1 0.8
02/01:00am 9.0 3.7 5.2 77 1.7 NNW 22 26 12 14 1014.3 1014.3 0.8
02/12:30am 9.5 4.3 5.5 76 1.8 NNW 22 28 12 15 1014.8 1014.8 0.8
02/12:00am 9.0 4.4 5.4 78 1.6 NNW 19 20 10 11 1015.0 1015.0 0.8
 
Date/Time
EST
Tmp

°C
App
Tmp
°C
Dew
Point
°C
Rel
Hum
%
Delta-T

°C
Wind Press
QNH
hPa
Press
MSL
hPa
Rain
since
9 am
mm
Dir
 
Spd
km/h
Gust
km/h
Spd
kts
Gust
kts
01/11:30pm 9.5 4.9 5.5 76 1.8 NW 19 22 10 12 1015.0 1015.0 0.8
01/11:00pm 9.7 4.5 5.5 75 1.9 NW 22 28 12 15 1015.3 1015.3 0.8
01/10:30pm 9.5 5.0 5.9 78 1.7 NW 19 24 10 13 1015.5 1015.5 0.8
01/10:00pm 8.5 5.4 5.4 81 1.4 NNW 11 13 6 7 1015.6 1015.6 0.8

Latest Capital City Observations: Canberra | Sydney | Melbourne | Brisbane | Adelaide | Perth | Hobart | Darwin

Other Formats:

Comma delimited format used in spreadsheet applications
http://www.bom.gov.au/fwo/IDV60901/IDV60901.94854.axf

JavaScript Object Notation format (JSON) in row-major order
http://www.bom.gov.au/fwo/IDV60901/IDV60901.94854.json